Terminal Aerodrome Forecast
Issued by NWS

Home | Current Version | Previous Version | Text Only | Print | Product List | Glossary On
Versions: 1 2 3 4 5 6 7 8 9 10 11 12 13 14
000
FTUS44 KBMX 252300
TAFTOI
TAF
KTOI 252339Z 2600/2624 20009KT P6SM SCT120
     FM260400 27008KT P6SM OVC100
     FM261100 28008KT P6SM OVC020
     FM261500 30012G18KT P6SM BKN030=

USA.gov is the U.S. government's official web portal to all federal, state and local government web resources and services.